Time;durP1;ratioP1;P1;durP2;ratioP2;P2;SDS_P1;SDS_P2;PMS_P1;PMS_P2;Temp;Humidity;BMP_temperature;BMP_pressure;BME280_temperature;BME280_humidity;BME280_pressure;Samples;Min_cycle;Max_cycle;Signal;HPM_P1;HPM_P2
2023/03/25 00:01:33;;;;;;;13.50;6.60;;;;;;;12.57;57.25;97922.33;105335;1259;61810;-23
2023/03/25 00:04:05;;;;;;;12.20;5.80;;;;;;;12.48;58.57;97918.90;105549;1259;74537;-24
2023/03/25 00:06:33;;;;;;;12.40;7.20;;;;;;;12.33;59.18;97918.73;105468;1254;75820;-23
2023/03/25 00:09:06;;;;;;;10.90;6.20;;;;;;;12.18;59.85;97918.08;105474;1257;73110;-24
2023/03/25 00:11:36;;;;;;;12.10;6.10;;;;;;;12.05;59.90;97920.73;105614;1260;61639;-24
2023/03/25 00:14:05;;;;;;;13.50;7.00;;;;;;;11.97;59.88;97910.46;105628;1259;61496;-24
2023/03/25 00:16:40;;;;;;;11.10;6.80;;;;;;;11.94;59.40;97912.70;105570;1260;75323;-24
2023/03/25 00:19:09;;;;;;;13.00;6.10;;;;;;;11.96;59.10;97912.67;105544;1257;76305;-23
2023/03/25 00:21:38;;;;;;;11.70;6.70;;;;;;;11.99;58.90;97914.08;105731;1253;74187;-24
2023/03/25 00:24:07;;;;;;;10.00;6.30;;;;;;;12.04;58.70;97916.36;105607;1267;61279;-24
2023/03/25 00:26:41;;;;;;;12.30;7.00;;;;;;;12.08;58.51;97914.45;105717;1255;61345;-24
2023/03/25 00:29:09;;;;;;;12.60;7.00;;;;;;;12.13;57.77;97916.02;105777;1258;74929;-24
2023/03/25 00:31:40;;;;;;;12.10;6.20;;;;;;;12.19;57.58;97916.67;105707;1260;75659;-23
2023/03/25 00:34:13;;;;;;;18.10;6.40;;;;;;;12.23;57.75;97916.70;105513;1257;73506;-24
2023/03/25 00:36:47;;;;;;;13.50;6.40;;;;;;;12.23;57.55;97912.52;105450;1255;61829;-24
2023/03/25 00:39:17;;;;;;;13.20;6.50;;;;;;;12.24;57.39;97913.05;105545;1257;61816;-24
2023/03/25 00:41:47;;;;;;;12.30;5.90;;;;;;;12.25;57.62;97912.79;105504;1254;75334;-24
2023/03/25 00:44:17;;;;;;;13.30;6.70;;;;;;;12.25;57.41;97918.03;105538;1259;75581;-24
2023/03/25 00:46:46;;;;;;;11.10;6.10;;;;;;;12.23;57.61;97916.61;105638;1258;73248;-24
2023/03/25 00:49:17;;;;;;;11.50;6.40;;;;;;;12.20;57.14;97916.09;105594;1260;61576;-24
2023/03/25 00:51:47;;;;;;;13.90;6.30;;;;;;;12.20;57.22;97915.36;105640;1258;61629;-24
2023/03/25 00:54:22;;;;;;;12.40;5.80;;;;;;;12.21;57.22;97916.19;103986;1261;2149088;-24
2023/03/25 00:56:51;;;;;;;10.10;6.00;;;;;;;12.22;57.29;97910.85;105535;1257;76030;-24
2023/03/25 00:59:20;;;;;;;12.40;6.90;;;;;;;12.23;56.82;97909.20;105467;1257;72794;-24
2023/03/25 01:01:52;;;;;;;12.00;6.60;;;;;;;12.25;56.99;97908.98;105519;1267;61250;-24
2023/03/25 01:04:20;;;;;;;9.80;6.60;;;;;;;12.23;57.22;97903.23;105515;1253;61531;-23
2023/03/25 01:14:27;;;;;;;11.20;5.60;;;;;;;12.35;56.10;97896.56;102660;1292;601141;-22
2023/03/25 01:16:58;;;;;;;9.00;5.30;;;;;;;12.38;56.23;97897.17;104864;1267;61171;-22
2023/03/25 01:19:28;;;;;;;11.60;6.40;;;;;;;12.32;56.73;97895.33;104624;1267;61833;-22
2023/03/25 01:22:02;;;;;;;11.80;6.00;;;;;;;12.24;56.86;97895.66;104867;1266;73742;-23
2023/03/25 01:24:31;;;;;;;13.50;6.60;;;;;;;12.20;56.95;97903.02;104866;1270;74662;-23
2023/03/25 01:27:00;;;;;;;11.30;6.80;;;;;;;12.18;57.05;97902.70;103390;1267;2018622;-24
2023/03/25 01:29:29;;;;;;;12.80;6.80;;;;;;;12.17;56.94;97906.82;104923;1269;61195;-23
2023/03/25 01:31:58;;;;;;;12.20;5.60;;;;;;;12.17;56.81;97909.45;105182;1269;61929;-23
2023/03/25 01:34:26;;;;;;;9.80;5.60;;;;;;;12.15;56.67;97915.58;105157;1267;73763;-23
2023/03/25 01:36:55;;;;;;;10.00;5.50;;;;;;;12.17;56.48;97906.97;105212;1267;75842;-23
2023/03/25 01:39:24;;;;;;;10.00;5.80;;;;;;;12.20;56.14;97904.08;105135;1263;74093;-23
2023/03/25 01:41:54;;;;;;;8.20;5.20;;;;;;;12.18;56.45;97913.69;105136;1263;61911;-24
2023/03/25 01:44:23;;;;;;;17.30;5.30;;;;;;;12.16;56.35;97937.77;105181;1267;61803;-24
2023/03/25 01:46:52;;;;;;;10.60;6.20;;;;;;;12.14;56.59;97938.33;105225;1263;74598;-25
2023/03/25 01:49:37;;;;;;;9.90;6.00;;;;;;;12.10;56.78;97931.61;105137;1263;75826;-25
2023/03/25 01:52:10;;;;;;;12.00;5.80;;;;;;;12.10;56.87;97929.81;105673;1254;73910;-24
2023/03/25 01:54:38;;;;;;;10.50;6.60;;;;;;;12.13;56.76;97924.83;105708;1257;61246;-25
2023/03/25 01:57:08;;;;;;;11.60;6.60;;;;;;;12.16;56.58;97924.30;105729;1253;61052;-24
2023/03/25 01:59:37;;;;;;;12.20;7.30;;;;;;;12.17;56.66;97924.03;105720;1259;74291;-24
2023/03/25 02:02:07;;;;;;;11.60;6.90;;;;;;;12.15;56.89;97926.23;105640;1254;75864;-24
2023/03/25 02:04:41;;;;;;;12.90;8.30;;;;;;;12.13;56.91;97918.08;105762;1254;74207;-24
2023/03/25 02:07:10;;;;;;;11.00;6.80;;;;;;;12.12;57.42;97916.22;105737;1254;61659;-24
2023/03/25 02:09:39;;;;;;;15.50;7.30;;;;;;;12.09;57.51;97913.99;105684;1254;61832;-24
2023/03/25 02:12:08;;;;;;;10.10;6.40;;;;;;;12.07;57.53;97910.14;105753;1254;74344;-25
2023/03/25 02:14:37;;;;;;;13.90;6.20;;;;;;;12.02;58.05;97902.60;105606;1254;75832;-24
2023/03/25 02:18:02;;;;;;;11.20;6.50;;;;;;;11.97;58.67;97894.25;105799;1256;74253;-24
2023/03/25 02:20:42;;;;;;;15.30;5.70;;;;;;;11.92;58.71;97887.87;105318;1258;62003;-24
2023/03/25 02:23:27;;;;;;;15.60;6.20;;;;;;;11.87;59.41;97885.06;105635;1254;61501;-23
2023/03/25 02:26:35;;;;;;;8.10;5.50;;;;;;;11.80;59.67;97881.14;105712;1254;74502;-24
2023/03/25 02:29:25;;;;;;;13.00;6.10;;;;;;;11.69;59.98;97875.98;105819;1253;74690;-24
2023/03/25 02:32:17;;;;;;;11.30;6.40;;;;;;;11.61;60.31;97875.73;105733;1254;74206;-24
2023/03/25 02:35:01;;;;;;;11.20;6.30;;;;;;;11.56;60.66;97873.15;105832;1257;61971;-24
2023/03/25 02:37:57;;;;;;;12.70;7.00;;;;;;;11.49;60.93;97865.73;105728;1259;61850;-24
2023/03/25 02:40:29;;;;;;;9.70;6.60;;;;;;;11.40;61.41;97860.71;105626;1254;74321;-24
2023/03/25 02:43:04;;;;;;;9.30;5.80;;;;;;;11.34;61.39;97856.84;105748;1254;74994;-23
2023/03/25 02:45:36;;;;;;;10.30;6.20;;;;;;;11.29;61.19;97853.80;105724;1259;74581;-23
2023/03/25 02:48:08;;;;;;;10.50;6.00;;;;;;;11.28;61.37;97853.73;105712;1254;61761;-24
2023/03/25 02:50:42;;;;;;;;;;;;;;;11.28;61.88;97855.86;105588;1255;61144;-24
2023/03/25 02:53:14;;;;;;;11.70;6.30;;;;;;;11.24;62.13;97853.50;105639;1254;73688;-24
2023/03/25 02:55:43;;;;;;;9.20;5.90;;;;;;;11.22;62.29;97853.94;105607;1254;75773;-23
2023/03/25 02:58:13;;;;;;;11.00;5.90;;;;;;;11.21;61.92;97849.52;105654;1257;74364;-24
2023/03/25 03:00:42;;;;;;;11.00;6.20;;;;;;;11.19;61.73;97848.27;105582;1254;61051;-23
2023/03/25 03:03:12;;;;;;;10.00;6.20;;;;;;;11.17;61.50;97844.65;105581;1259;61643;-23
2023/03/25 03:05:42;;;;;;;14.80;6.80;;;;;;;11.14;61.54;97841.48;105658;1254;74610;-24
2023/03/25 03:08:23;;;;;;;9.10;5.50;;;;;;;11.12;61.65;97836.85;105516;1254;75456;-23
2023/03/25 03:11:05;;;;;;;11.60;6.00;;;;;;;11.09;61.85;97834.65;105621;1254;73935;-24
2023/03/25 03:13:54;;;;;;;9.40;5.30;;;;;;;11.06;61.95;97832.20;105682;1254;61995;-24
2023/03/25 03:17:04;;;;;;;10.00;6.40;;;;;;;11.05;61.90;97838.61;105678;1257;61584;-24
2023/03/25 03:19:51;;;;;;;10.90;5.80;;;;;;;11.01;63.11;97832.89;105355;1257;74502;-23
2023/03/25 03:22:25;;;;;;;8.70;5.10;;;;;;;11.03;63.61;97838.30;105677;1254;75611;-24
2023/03/25 03:25:14;;;;;;;9.90;5.80;;;;;;;11.04;63.20;97828.95;105807;1254;74144;-24
2023/03/25 03:28:18;;;;;;;9.00;5.20;;;;;;;11.05;63.52;97833.50;105717;1254;61055;-23
2023/03/25 03:30:59;;;;;;;10.10;5.40;;;;;;;11.04;63.45;97835.59;105733;1254;61074;-24
2023/03/25 03:33:32;;;;;;;8.70;5.20;;;;;;;11.00;63.59;97829.16;105731;1254;74232;-24
2023/03/25 03:36:06;;;;;;;10.70;5.50;;;;;;;10.99;63.64;97822.52;105736;1254;74823;-23
2023/03/25 03:38:39;;;;;;;9.50;5.10;;;;;;;10.98;63.71;97818.48;105709;1254;74533;-24
2023/03/25 03:41:09;;;;;;;11.60;5.50;;;;;;;10.96;63.77;97814.66;105728;1259;61170;-24
2023/03/25 03:44:06;;;;;;;7.50;5.20;;;;;;;10.94;63.46;97816.81;105671;1254;61752;-24
2023/03/25 03:46:54;;;;;;;8.00;4.60;;;;;;;10.91;63.16;97814.29;105678;1254;73137;-23
2023/03/25 03:49:40;;;;;;;8.80;4.70;;;;;;;10.89;63.33;97820.95;105702;1254;75694;-24
2023/03/25 03:52:21;;;;;;;7.30;5.10;;;;;;;10.86;64.00;97822.93;105675;1259;73067;-24
2023/03/25 03:55:00;;;;;;;9.90;5.00;;;;;;;10.82;65.11;97820.55;105649;1254;61004;-23
2023/03/25 03:57:33;;;;;;;7.70;5.40;;;;;;;10.82;65.77;97818.05;105678;1254;61091;-24
2023/03/25 04:00:17;;;;;;;9.20;4.00;;;;;;;10.85;65.47;97820.13;105717;1254;74546;-24
2023/03/25 04:02:51;;;;;;;8.00;4.00;;;;;;;11.54;64.24;97820.71;105663;1254;74724;-24
2023/03/25 04:05:21;;;;;;;9.70;5.00;;;;;;;12.11;62.41;97822.70;105692;1254;73229;-24
2023/03/25 04:08:03;;;;;;;8.50;5.10;;;;;;;12.11;61.89;97829.18;105658;1258;61830;-24
2023/03/25 04:10:44;;;;;;;7.50;4.80;;;;;;;11.95;61.96;97828.06;105578;1256;61703;-24
2023/03/25 04:13:13;;;;;;;7.70;5.10;;;;;;;11.71;62.74;97831.45;105771;1257;74351;-24
2023/03/25 04:15:42;;;;;;;9.30;5.50;;;;;;;11.54;63.21;97830.39;105688;1254;75619;-24
2023/03/25 04:18:12;;;;;;;11.30;6.50;;;;;;;11.37;64.09;97829.75;105763;1254;73181;-23
2023/03/25 04:20:48;;;;;;;9.60;5.30;;;;;;;11.27;64.54;97831.45;105679;1254;62073;-23
2023/03/25 04:23:20;;;;;;;7.60;5.50;;;;;;;11.19;65.23;97831.30;105716;1257;61751;-24
2023/03/25 04:25:51;;;;;;;10.80;5.60;;;;;;;11.10;65.78;97829.23;105783;1257;74534;-24
2023/03/25 04:28:26;;;;;;;7.20;5.20;;;;;;;11.06;65.52;97829.64;105587;1257;75622;-24
2023/03/25 04:30:56;;;;;;;8.10;4.50;;;;;;;10.98;66.35;97827.80;105583;1253;74015;-24
2023/03/25 04:33:25;;;;;;;7.00;4.60;;;;;;;10.92;66.39;97822.57;105854;1254;61167;-24
2023/03/25 04:35:53;;;;;;;6.40;3.30;;;;;;;10.92;67.11;97822.99;105809;1256;61103;-24
2023/03/25 04:38:22;;;;;;;5.90;3.70;;;;;;;11.50;67.66;97827.05;105774;1254;74105;-24
2023/03/25 04:40:51;;;;;;;6.80;3.90;;;;;;;12.11;66.48;97831.55;105694;1256;74883;-24
2023/03/25 04:43:22;;;;;;;6.90;4.00;;;;;;;12.24;65.92;97829.92;105745;1254;74171;-25
2023/03/25 04:45:54;;;;;;;7.10;3.80;;;;;;;12.14;65.80;97829.02;105735;1253;61948;-24
2023/03/25 04:48:28;;;;;;;5.70;4.30;;;;;;;11.96;66.44;97827.78;105864;1256;61186;-24
2023/03/25 04:50:58;;;;;;;7.80;4.10;;;;;;;11.77;67.37;97828.21;105560;1252;73726;-24
2023/03/25 04:53:30;;;;;;;7.30;4.10;;;;;;;11.58;68.76;97824.11;105743;1254;74875;-24
2023/03/25 04:55:59;;;;;;;5.70;3.60;;;;;;;11.43;69.83;97823.06;105758;1257;74037;-24
2023/03/25 04:58:27;;;;;;;6.20;4.10;;;;;;;11.30;71.34;97821.69;105847;1254;61199;-24
2023/03/25 05:01:04;;;;;;;5.50;2.90;;;;;;;11.19;72.86;97821.35;105885;1256;61973;-24
2023/03/25 05:03:38;;;;;;;5.60;3.20;;;;;;;11.77;72.09;97822.00;105763;1254;72796;-24
2023/03/25 05:06:07;;;;;;;5.00;3.30;;;;;;;12.35;69.96;97822.65;105925;1254;74913;-23
2023/03/25 05:08:36;;;;;;;5.70;3.20;;;;;;;12.46;69.35;97822.98;105869;1254;73915;-24
2023/03/25 05:11:06;;;;;;;4.40;3.20;;;;;;;12.32;69.60;97830.55;105693;1254;61909;-23
2023/03/25 05:13:36;;;;;;;6.20;4.00;;;;;;;12.12;70.03;97827.00;105665;1258;62492;-25
2023/03/25 05:16:06;;;;;;;6.10;3.50;;;;;;;11.92;70.49;97828.06;105620;1254;74808;-24
2023/03/25 05:18:35;;;;;;;6.80;3.50;;;;;;;11.73;71.35;97824.45;105680;1258;75628;-25
2023/03/25 05:21:06;;;;;;;4.40;3.50;;;;;;;11.53;72.08;97821.46;105738;1254;74180;-24
2023/03/25 05:23:34;;;;;;;5.90;2.70;;;;;;;11.37;74.40;97823.86;105712;1253;62547;-24
2023/03/25 05:26:04;;;;;;;4.50;2.80;;;;;;;11.77;74.73;97823.85;105868;1254;61895;-24
2023/03/25 05:28:37;;;;;;;;;;;;;;;12.20;73.82;97824.95;105526;1258;74550;-23
2023/03/25 05:31:07;;;;;;;6.20;3.30;;;;;;;12.15;74.12;97825.95;105579;1254;74936;-24
2023/03/25 05:33:43;;;;;;;5.30;3.70;;;;;;;12.02;74.40;97822.64;105746;1253;74020;-24
2023/03/25 05:36:13;;;;;;;7.50;5.20;;;;;;;11.78;75.13;97820.98;105850;1257;61933;-26
2023/03/25 05:38:42;;;;;;;8.50;5.10;;;;;;;11.47;75.84;97818.65;105741;1259;61785;-26
2023/03/25 05:41:15;;;;;;;7.40;3.90;;;;;;;11.20;76.21;97814.66;105883;1254;75312;-27
2023/03/25 05:43:49;;;;;;;7.40;4.40;;;;;;;11.47;76.55;97810.34;105318;1260;75627;-27
2023/03/25 05:46:18;;;;;;;8.70;4.60;;;;;;;11.66;75.48;97810.63;105717;1256;73156;-26
2023/03/25 05:48:47;;;;;;;8.80;4.80;;;;;;;11.54;75.96;97807.66;105885;1254;62306;-26
2023/03/25 05:51:16;;;;;;;7.80;5.00;;;;;;;11.32;76.72;97807.04;105744;1256;61682;-26
2023/03/25 05:53:54;;;;;;;8.50;5.10;;;;;;;11.11;77.53;97797.83;105693;1259;74307;-26
2023/03/25 05:56:23;;;;;;;6.20;3.80;;;;;;;10.98;78.29;97793.19;105626;1254;75833;-26
2023/03/25 05:58:53;;;;;;;6.40;4.30;;;;;;;11.55;78.15;97791.02;105604;1256;73054;-26
2023/03/25 06:01:22;;;;;;;8.00;4.60;;;;;;;12.04;77.19;97791.45;105649;1253;61157;-26
2023/03/25 06:04:08;;;;;;;8.50;5.10;;;;;;;12.06;76.32;97789.77;105845;1256;61570;-26
2023/03/25 06:06:40;;;;;;;6.20;4.40;;;;;;;11.85;77.14;97785.67;105679;1254;75230;-26
2023/03/25 06:09:10;;;;;;;6.50;4.60;;;;;;;11.59;78.28;97784.05;105769;1257;75426;-26
2023/03/25 06:11:40;;;;;;;8.10;6.00;;;;;;;11.36;79.39;97779.10;105854;1256;74198;-26
2023/03/25 06:14:09;;;;;;;7.50;4.10;;;;;;;11.22;80.57;97773.46;105862;1254;63533;-26
2023/03/25 06:16:45;;;;;;;8.50;5.20;;;;;;;11.72;80.51;97770.88;105636;1256;61937;-26
2023/03/25 06:19:17;;;;;;;10.50;5.80;;;;;;;12.16;78.93;97766.73;105738;1254;75205;-26
2023/03/25 06:21:48;;;;;;;10.40;6.20;;;;;;;12.13;78.15;97764.92;105759;1253;75625;-26
2023/03/25 06:24:16;;;;;;;9.60;6.10;;;;;;;11.93;78.83;97766.77;105824;1254;73105;-26
2023/03/25 06:26:45;;;;;;;10.50;7.10;;;;;;;11.68;79.55;97765.35;105905;1254;61840;-26
2023/03/25 06:29:14;;;;;;;9.10;6.80;;;;;;;11.45;80.54;97763.46;105896;1256;61048;-26
2023/03/25 06:31:42;;;;;;;7.30;5.10;;;;;;;11.28;81.29;97767.97;105912;1254;75499;-26
2023/03/25 06:34:11;;;;;;;7.80;5.30;;;;;;;11.69;80.88;97770.42;105894;1254;75846;-26
2023/03/25 06:36:41;;;;;;;7.10;4.90;;;;;;;12.05;79.34;97773.23;105843;1254;73942;-26
2023/03/25 06:39:10;;;;;;;12.20;5.50;;;;;;;11.99;78.92;97777.17;105629;1254;61872;-26
2023/03/25 06:41:39;;;;;;;7.90;5.30;;;;;;;11.75;79.42;97777.10;105780;1258;61943;-26
2023/03/25 06:44:12;;;;;;;10.30;6.60;;;;;;;11.46;80.98;97775.34;105853;1256;75404;-27
2023/03/25 06:46:47;;;;;;;8.70;5.00;;;;;;;11.34;82.45;97779.21;105887;1254;75809;-26
2023/03/25 06:49:31;;;;;;;9.30;5.40;;;;;;;11.77;80.68;97772.09;105916;1256;74128;-26
2023/03/25 06:51:59;;;;;;;7.40;5.60;;;;;;;11.85;80.20;97774.66;105903;1254;61864;-26
2023/03/25 06:54:28;;;;;;;11.40;5.20;;;;;;;11.78;79.89;97773.33;105758;1254;61177;-26
2023/03/25 06:56:57;;;;;;;12.60;5.10;;;;;;;11.61;80.53;97771.96;105896;1254;75321;-26
2023/03/25 06:59:30;;;;;;;6.30;4.00;;;;;;;11.48;81.61;97772.36;105827;1256;75868;-26
2023/03/25 07:02:00;;;;;;;7.60;4.80;;;;;;;11.92;81.13;97773.33;105746;1254;74140;-26
2023/03/25 07:04:29;;;;;;;8.00;5.70;;;;;;;12.34;79.75;97770.15;105861;1253;61752;-26
2023/03/25 07:07:00;;;;;;;14.10;5.90;;;;;;;12.39;78.58;97769.17;105887;1254;61102;-27
2023/03/25 07:09:29;;;;;;;11.20;5.60;;;;;;;12.12;79.13;97767.28;105904;1254;75088;-27
2023/03/25 07:11:58;;;;;;;10.00;5.90;;;;;;;11.81;80.39;97767.85;105872;1256;73760;-27
2023/03/25 07:14:29;;;;;;;8.00;4.90;;;;;;;11.60;81.52;97764.08;105548;1254;74166;-27
2023/03/25 07:16:57;;;;;;;12.30;5.80;;;;;;;12.00;81.07;97758.39;105725;1254;61708;-27
2023/03/25 07:19:30;;;;;;;14.80;7.10;;;;;;;12.23;80.24;97758.15;105877;1256;61414;-26
2023/03/25 07:22:01;;;;;;;12.50;7.90;;;;;;;12.07;81.09;97761.45;105918;1254;75333;-27
2023/03/25 07:24:30;;;;;;;11.50;7.30;;;;;;;12.03;80.94;97757.84;105913;1254;75861;-26
2023/03/25 07:26:59;;;;;;;11.40;5.10;;;;;;;11.98;81.35;97757.69;105703;1255;74105;-27
2023/03/25 07:29:28;;;;;;;10.30;5.40;;;;;;;12.45;81.31;97758.54;105564;1255;61665;-27
2023/03/25 07:31:57;;;;;;;8.50;4.80;;;;;;;12.99;79.31;97752.53;105922;1256;61956;-27
2023/03/25 07:34:26;;;;;;;6.80;5.00;;;;;;;13.13;78.19;97752.98;105887;1254;75072;-27
2023/03/25 07:36:55;;;;;;;11.10;6.00;;;;;;;12.99;78.14;97755.90;105855;1254;75730;-27
2023/03/25 07:39:24;;;;;;;7.90;5.10;;;;;;;12.78;79.01;97757.36;105891;1254;74062;-27
2023/03/25 07:41:54;;;;;;;6.80;5.40;;;;;;;12.56;80.34;97759.90;105664;1256;61425;-27
2023/03/25 07:44:35;;;;;;;10.20;4.60;;;;;;;12.45;81.12;97758.50;105877;1256;61592;-27
2023/03/25 07:47:06;;;;;;;8.70;5.00;;;;;;;12.88;80.42;97767.03;105808;1254;75356;-27
2023/03/25 07:49:39;;;;;;;10.40;5.90;;;;;;;13.07;79.22;97765.14;105778;1254;75757;-27
2023/03/25 07:52:08;;;;;;;8.80;4.90;;;;;;;12.92;79.16;97765.78;105784;1256;74180;-27
2023/03/25 07:54:37;;;;;;;8.60;7.00;;;;;;;12.55;80.48;97762.20;105808;1254;62148;-27
2023/03/25 07:57:05;;;;;;;14.20;5.50;;;;;;;12.26;81.60;97763.69;105821;1257;61297;-27
2023/03/25 07:59:36;;;;;;;12.00;5.90;;;;;;;12.25;82.53;97762.09;105896;1256;75678;-27
2023/03/25 08:02:05;;;;;;;10.40;7.00;;;;;;;12.56;81.72;97765.16;105909;1256;75820;-27
2023/03/25 08:04:34;;;;;;;14.40;7.60;;;;;;;12.63;81.15;97762.09;105862;1256;74288;-27
2023/03/25 08:07:03;;;;;;;13.90;7.30;;;;;;;12.42;81.14;97759.92;105811;1256;61867;-26
2023/03/25 08:09:32;;;;;;;8.40;4.70;;;;;;;12.11;82.56;97762.78;105664;1257;61958;-26
2023/03/25 08:12:01;;;;;;;11.30;7.00;;;;;;;12.13;83.11;97756.48;105708;1254;75489;-27
2023/03/25 08:14:30;;;;;;;9.90;6.50;;;;;;;12.47;82.91;97758.89;105827;1259;75983;-27
2023/03/25 08:16:59;;;;;;;11.40;7.40;;;;;;;12.46;82.79;97756.38;105918;1254;73597;-27
2023/03/25 08:19:35;;;;;;;11.70;7.00;;;;;;;12.36;83.27;97756.55;105858;1253;61660;-27
2023/03/25 08:22:06;;;;;;;10.00;6.60;;;;;;;12.19;84.62;97752.65;105879;1256;61447;-27
2023/03/25 08:24:35;;;;;;;10.20;5.50;;;;;;;12.65;83.86;97749.92;105973;1256;73712;-27
2023/03/25 08:27:09;;;;;;;11.90;7.20;;;;;;;12.93;81.79;97747.55;105887;1256;75862;-27
2023/03/25 08:29:53;;;;;;;10.10;6.40;;;;;;;12.86;81.96;97748.13;105861;1254;74176;-27
2023/03/25 08:32:26;;;;;;;11.20;7.10;;;;;;;12.83;83.06;97754.23;105807;1259;61220;-27
2023/03/25 08:34:54;;;;;;;6.70;4.30;;;;;;;12.89;83.46;97754.81;105813;1259;61873;-28
2023/03/25 08:37:24;;;;;;;11.00;5.70;;;;;;;13.33;81.70;97755.27;105865;1252;75247;-29
2023/03/25 08:39:54;;;;;;;10.80;7.10;;;;;;;13.71;80.25;97757.08;105653;1254;75766;-29
2023/03/25 08:42:24;;;;;;;9.30;7.30;;;;;;;13.55;79.60;97754.16;105882;1257;74326;-27
2023/03/25 08:44:52;;;;;;;8.10;6.20;;;;;;;13.35;79.99;97755.71;105921;1252;61887;-28
2023/03/25 08:47:21;;;;;;;8.80;6.20;;;;;;;13.08;81.96;97755.77;105895;1256;61826;-28
2023/03/25 08:49:53;;;;;;;7.20;5.50;;;;;;;13.26;81.97;97757.48;105880;1254;75185;-26
2023/03/25 08:52:24;;;;;;;6.90;5.80;;;;;;;13.84;79.75;97756.12;105623;1254;75922;-25
2023/03/25 08:54:52;;;;;;;7.30;5.80;;;;;;;13.94;77.56;97752.56;105655;1253;73568;-26
2023/03/25 08:57:21;;;;;;;7.60;6.10;;;;;;;13.79;77.86;97752.05;105877;1253;61978;-26
2023/03/25 08:59:51;;;;;;;6.30;4.70;;;;;;;13.61;78.29;97743.17;105764;1256;61660;-26
2023/03/25 09:02:20;;;;;;;5.90;5.00;;;;;;;13.52;78.90;97743.06;105727;1254;75274;-26
2023/03/25 09:04:50;;;;;;;6.60;4.80;;;;;;;13.48;79.71;97748.95;105881;1255;74769;-26
2023/03/25 09:07:22;;;;;;;6.40;4.90;;;;;;;13.95;78.78;97751.77;105824;1259;74278;-26
2023/03/25 09:09:50;;;;;;;5.50;4.80;;;;;;;14.34;77.96;97747.70;105880;1257;61195;-26
2023/03/25 09:12:21;;;;;;;8.40;5.40;;;;;;;14.33;76.56;97738.27;105542;1256;61872;-26
2023/03/25 09:14:50;;;;;;;4.80;4.30;;;;;;;14.17;77.14;97738.19;105591;1257;74049;-26
2023/03/25 09:17:19;;;;;;;7.70;5.70;;;;;;;14.07;78.19;97736.21;105915;1256;75723;-26
2023/03/25 09:19:56;;;;;;;7.10;4.30;;;;;;;13.97;77.86;97733.90;105656;1254;74108;-26
2023/03/25 09:22:26;;;;;;;4.00;2.40;;;;;;;13.75;77.25;97734.84;105651;1254;62976;-27
2023/03/25 09:24:57;;;;;;;3.90;3.00;;;;;;;14.20;76.08;97728.04;105644;1259;61867;-26
2023/03/25 09:27:26;;;;;;;5.40;3.70;;;;;;;14.72;75.80;97733.48;105921;1254;74805;-26
2023/03/25 09:29:55;;;;;;;4.90;3.60;;;;;;;14.83;74.60;97738.84;105907;1254;75833;-26
2023/03/25 09:32:24;;;;;;;4.30;3.30;;;;;;;14.67;74.19;97735.61;105885;1253;73943;-26
2023/03/25 09:34:53;;;;;;;4.10;3.70;;;;;;;14.40;75.40;97738.02;105883;1254;61697;-26
2023/03/25 09:37:22;;;;;;;7.00;4.10;;;;;;;14.20;74.42;97738.55;105898;1254;61826;-26
2023/03/25 09:39:51;;;;;;;5.20;4.00;;;;;;;14.00;75.59;97728.54;105862;1256;75317;-26
2023/03/25 09:42:47;;;;;;;7.00;5.10;;;;;;;13.89;76.66;97722.59;105887;1256;75815;-26
2023/03/25 09:45:22;;;;;;;5.00;4.10;;;;;;;14.25;74.82;97723.15;105752;1254;73462;-26
2023/03/25 09:48:13;;;;;;;4.80;4.00;;;;;;;14.38;74.16;97728.91;105540;1254;61898;-27
2023/03/25 09:50:42;;;;;;;6.90;5.20;;;;;;;14.22;75.01;97732.58;105685;1256;61468;-26
2023/03/25 09:53:44;;;;;;;7.00;5.30;;;;;;;13.84;75.26;97730.88;105788;1256;75356;-26
2023/03/25 09:56:16;;;;;;;6.00;4.30;;;;;;;13.57;77.13;97737.10;105716;1254;76010;-26
2023/03/25 09:59:08;;;;;;;5.00;3.20;;;;;;;13.49;77.39;97734.32;105805;1254;74101;-26
2023/03/25 10:01:53;;;;;;;4.50;3.30;;;;;;;14.09;76.90;97733.20;105827;1254;61682;-26
2023/03/25 10:04:46;;;;;;;6.50;3.80;;;;;;;14.49;75.61;97737.64;105679;1254;61094;-26
2023/03/25 10:07:36;;;;;;;5.40;4.00;;;;;;;14.37;74.78;97734.84;105620;1254;75376;-26
2023/03/25 10:10:24;;;;;;;6.40;4.90;;;;;;;13.99;75.74;97736.05;105685;1254;74621;-26
2023/03/25 10:13:01;;;;;;;9.20;7.00;;;;;;;13.57;77.79;97734.49;105671;1254;73833;-26
2023/03/25 10:15:34;;;;;;;5.60;4.00;;;;;;;13.34;79.25;97734.56;105672;1252;63313;-26
2023/03/25 10:18:11;;;;;;;4.30;3.70;;;;;;;13.74;78.19;97735.97;105630;1260;61825;-26
2023/03/25 10:20:46;;;;;;;5.70;4.10;;;;;;;13.96;76.79;97725.11;105565;1254;75390;-26
2023/03/25 10:23:23;;;;;;;6.30;5.30;;;;;;;13.93;76.91;97725.13;105947;1256;75839;-25
2023/03/25 10:25:55;;;;;;;6.20;4.70;;;;;;;13.73;77.39;97723.35;105644;1254;74695;-25
2023/03/25 10:28:31;;;;;;;8.90;5.90;;;;;;;13.59;78.00;97719.17;105666;1254;61224;-25
2023/03/25 10:31:01;;;;;;;5.50;4.30;;;;;;;13.48;78.47;97716.61;105785;1267;61765;-25
2023/03/25 10:33:34;;;;;;;7.00;4.40;;;;;;;13.83;78.39;97714.04;105677;1254;73955;-26
2023/03/25 10:36:06;;;;;;;9.90;4.60;;;;;;;14.23;76.06;97711.20;105810;1254;75838;-25
2023/03/25 10:38:36;;;;;;;8.00;5.10;;;;;;;14.24;76.57;97709.45;105697;1260;72904;-25
2023/03/25 10:41:26;;;;;;;9.50;6.20;;;;;;;14.07;76.69;97708.62;105891;1255;61137;-24
2023/03/25 10:43:55;;;;;;;8.10;5.50;;;;;;;13.64;77.82;97707.64;105465;1259;61970;-25
2023/03/25 10:46:30;;;;;;;7.10;4.50;;;;;;;13.48;78.52;97703.20;105644;1257;75064;-25
2023/03/25 10:48:59;;;;;;;5.80;4.80;;;;;;;13.85;77.70;97699.70;105741;1254;75921;-25
2023/03/25 10:51:31;;;;;;;6.60;4.50;;;;;;;14.15;77.12;97697.21;105806;1259;73249;-26
2023/03/25 10:53:59;;;;;;;6.20;4.20;;;;;;;14.21;76.73;97696.92;105662;1254;62462;-26
2023/03/25 10:56:49;;;;;;;6.00;4.30;;;;;;;14.05;77.25;97694.36;105897;1259;61498;-26
2023/03/25 10:59:28;;;;;;;4.90;4.10;;;;;;;13.89;76.79;97692.59;105891;1257;73225;-26
2023/03/25 11:01:56;;;;;;;4.40;3.60;;;;;;;13.80;78.08;97688.88;105849;1257;74917;-24
2023/03/25 11:04:32;;;;;;;4.40;3.70;;;;;;;14.32;77.39;97685.30;105567;1254;74213;-25
2023/03/25 11:07:15;;;;;;;4.60;3.40;;;;;;;14.82;76.18;97683.04;105553;1254;61714;-26
2023/03/25 11:09:46;;;;;;;4.60;3.50;;;;;;;14.56;75.36;97674.44;105658;1257;61783;-26
2023/03/25 11:12:18;;;;;;;4.30;3.50;;;;;;;14.45;75.27;97671.04;105852;1254;75722;-25
2023/03/25 11:14:55;;;;;;;4.10;3.40;;;;;;;14.26;75.69;97663.48;105731;1256;75759;-25
2023/03/25 11:17:25;;;;;;;4.40;4.00;;;;;;;14.10;76.20;97663.35;105808;1257;73201;-25
2023/03/25 11:19:55;;;;;;;4.30;2.80;;;;;;;13.94;76.73;97658.52;105712;1257;62606;-26
2023/03/25 11:22:29;;;;;;;3.60;2.50;;;;;;;14.41;76.43;97654.73;105625;1254;61157;-25
2023/03/25 11:25:03;;;;;;;4.80;3.30;;;;;;;14.79;74.95;97654.59;105770;1254;74086;-26
2023/03/25 11:27:55;;;;;;;3.80;3.50;;;;;;;14.66;74.99;97651.89;105711;1254;76039;-27
2023/03/25 11:30:25;;;;;;;6.60;4.40;;;;;;;14.42;75.52;97649.08;105656;1255;72667;-26
2023/03/25 11:33:03;;;;;;;5.10;3.90;;;;;;;14.26;76.32;97645.15;105829;1257;61919;-26
2023/03/25 11:35:42;;;;;;;6.00;4.50;;;;;;;14.07;76.09;97641.14;105709;1255;61622;-26
2023/03/25 11:38:15;;;;;;;;;;;;;;;13.91;77.50;97644.08;105863;1257;75289;-26
2023/03/25 11:40:55;;;;;;;3.80;2.90;;;;;;;14.40;76.81;97639.34;105717;1259;75853;-26
2023/03/25 11:43:25;;;;;;;6.90;5.20;;;;;;;14.87;75.70;97638.61;105680;1254;73790;-27
2023/03/25 11:45:54;;;;;;;5.00;4.00;;;;;;;14.90;74.95;97638.31;105610;1255;61769;-26
2023/03/25 11:48:30;;;;;;;5.40;4.00;;;;;;;14.76;75.05;97635.43;105552;1258;61117;-27
2023/03/25 11:51:00;;;;;;;7.70;6.70;;;;;;;14.55;75.41;97633.02;105749;1254;74326;-27
2023/03/25 11:53:35;;;;;;;5.70;4.50;;;;;;;14.32;75.95;97630.16;105501;1260;75865;-27
2023/03/25 11:56:10;;;;;;;4.00;2.60;;;;;;;14.18;77.19;97628.86;105701;1253;74805;-27
2023/03/25 11:58:39;;;;;;;4.10;2.70;;;;;;;14.69;77.21;97630.31;105419;1254;61090;-27